Time;durP1;ratioP1;P1;durP2;ratioP2;P2;SDS_P1;SDS_P2;PMS_P1;PMS_P2;Temp;Humidity;BMP_temperature;BMP_pressure;BME280_temperature;BME280_humidity;BME280_pressure;Samples;Min_cycle;Max_cycle;Signal;HPM_P1;HPM_P2
2022/08/29 00:02:15;;;;;;;4.68;3.47;;;;;;;;;;4986908;28;20229;-58
2022/08/29 00:04:41;;;;;;;4.68;3.53;;;;;;;;;;4983082;28;20233;-58
2022/08/29 00:07:07;;;;;;;3.90;3.17;;;;;;;;;;4982343;28;20237;-57
2022/08/29 00:09:35;;;;;;;5.68;3.42;;;;;;;;;;4982482;28;20650;-57
2022/08/29 00:12:02;;;;;;;8.48;3.92;;;;;;;;;;4982933;28;20249;-57
2022/08/29 00:14:28;;;;;;;7.45;3.15;;;;;;;;;;4984590;28;20241;-58
2022/08/29 00:16:54;;;;;;;6.88;3.47;;;;;;;;;;4984016;28;20269;-57
2022/08/29 00:19:21;;;;;;;4.40;3.15;;;;;;;;;;4980496;28;20264;-57
2022/08/29 00:21:47;;;;;;;6.47;3.13;;;;;;;;;;4979770;28;20229;-57
2022/08/29 00:24:14;;;;;;;5.20;3.78;;;;;;;;;;4984803;28;20230;-57
2022/08/29 00:26:41;;;;;;;10.15;3.60;;;;;;;;;;4982896;28;20237;-57
2022/08/29 00:29:08;;;;;;;6.35;3.75;;;;;;;;;;4982678;28;20238;-57
2022/08/29 00:31:34;;;;;;;6.80;3.10;;;;;;;;;;4982074;28;20606;-58
2022/08/29 00:34:00;;;;;;;7.43;3.80;;;;;;;;;;4981020;28;20234;-57
2022/08/29 00:36:27;;;;;;;4.78;3.50;;;;;;;;;;4982288;28;20226;-58
2022/08/29 00:38:53;;;;;;;7.47;3.22;;;;;;;;;;4983334;28;20237;-58
2022/08/29 00:41:20;;;;;;;4.47;3.22;;;;;;;;;;4983394;28;20876;-56
2022/08/29 00:43:48;;;;;;;5.40;3.47;;;;;;;;;;4984682;28;20244;-57
2022/08/29 00:46:33;;;;;;;4.20;2.70;;;;;;;;;;4983092;28;20233;-57
2022/08/29 00:49:02;;;;;;;5.38;3.30;;;;;;;;;;4983266;28;20244;-57
2022/08/29 00:51:28;;;;;;;5.93;3.33;;;;;;;;;;4980158;28;20233;-57
2022/08/29 00:53:58;;;;;;;7.28;3.55;;;;;;;;;;4981389;28;20233;-58
2022/08/29 00:56:25;;;;;;;6.10;2.67;;;;;;;;;;4982697;28;20237;-57
2022/08/29 00:58:55;;;;;;;7.60;3.53;;;;;;;;;;4982251;28;20797;-57
2022/08/29 01:01:21;;;;;;;10.00;3.60;;;;;;;;;;4982752;28;20242;-57
2022/08/29 01:03:48;;;;;;;6.45;3.08;;;;;;;;;;4981258;28;20234;-57
2022/08/29 01:06:15;;;;;;;6.70;4.05;;;;;;;;;;4986829;28;20233;-59
2022/08/29 01:08:41;;;;;;;7.60;3.25;;;;;;;;;;4989302;28;20828;-58
2022/08/29 01:13:55;;;;;;;5.15;3.28;;;;;;;;;;4973987;28;20862;-59
2022/08/29 01:16:22;;;;;;;7.05;3.42;;;;;;;;;;4983476;28;20237;-57
2022/08/29 01:18:50;;;;;;;6.30;3.28;;;;;;;;;;4985146;28;20323;-57
2022/08/29 01:21:22;;;;;;;6.10;3.35;;;;;;;;;;4980113;28;20242;-57
2022/08/29 01:23:52;;;;;;;4.45;3.25;;;;;;;;;;4983299;28;20342;-57
2022/08/29 01:26:21;;;;;;;3.75;3.45;;;;;;;;;;4984618;28;20234;-58
2022/08/29 01:28:49;;;;;;;9.55;3.78;;;;;;;;;;4984543;28;20238;-56
2022/08/29 01:31:19;;;;;;;5.65;3.40;;;;;;;;;;4981204;28;20230;-56
2022/08/29 01:33:46;;;;;;;4.70;3.97;;;;;;;;;;4976022;28;20687;-56
2022/08/29 01:36:15;;;;;;;4.60;2.92;;;;;;;;;;4982825;28;20244;-56
2022/08/29 01:38:41;;;;;;;6.90;3.55;;;;;;;;;;4980459;28;20233;-56
2022/08/29 01:41:08;;;;;;;3.75;3.33;;;;;;;;;;4984163;28;20895;-56
2022/08/29 01:43:40;;;;;;;6.03;3.55;;;;;;;;;;4984749;28;20309;-57
2022/08/29 01:46:06;;;;;;;4.63;3.60;;;;;;;;;;4977668;28;20288;-56
2022/08/29 01:48:32;;;;;;;6.25;3.58;;;;;;;;;;4977940;28;20255;-56
2022/08/29 01:50:59;;;;;;;6.38;3.28;;;;;;;;;;4977740;28;20238;-56
2022/08/29 01:53:25;;;;;;;6.43;3.15;;;;;;;;;;4983945;28;20364;-57
2022/08/29 01:55:51;;;;;;;8.05;3.83;;;;;;;;;;4983465;28;20242;-56
2022/08/29 01:58:18;;;;;;;6.28;3.42;;;;;;;;;;4984954;28;20249;-58
2022/08/29 02:00:45;;;;;;;5.50;3.35;;;;;;;;;;4983483;28;20225;-57
2022/08/29 02:03:12;;;;;;;4.53;3.25;;;;;;;;;;4982696;28;20485;-57
2022/08/29 02:05:38;;;;;;;5.80;3.67;;;;;;;;;;4983033;28;20225;-57
2022/08/29 02:08:05;;;;;;;6.13;3.88;;;;;;;;;;4984646;28;20237;-57
2022/08/29 02:10:31;;;;;;;5.15;3.92;;;;;;;;;;4984257;28;20240;-57
2022/08/29 02:12:57;;;;;;;6.63;3.58;;;;;;;;;;4984537;28;20324;-56
2022/08/29 02:15:24;;;;;;;4.78;3.20;;;;;;;;;;4982359;28;20241;-57
2022/08/29 02:17:52;;;;;;;5.88;3.70;;;;;;;;;;4979752;28;20748;-58
2022/08/29 02:20:18;;;;;;;7.13;3.33;;;;;;;;;;4984087;28;20243;-57
2022/08/29 02:22:44;;;;;;;6.90;3.92;;;;;;;;;;4979777;28;20229;-57
2022/08/29 02:27:56;;;;;;;5.60;3.97;;;;;;;;;;4979344;28;20745;-57
2022/08/29 02:30:24;;;;;;;6.50;3.60;;;;;;;;;;4981910;28;20660;-56
2022/08/29 02:32:52;;;;;;;5.55;3.28;;;;;;;;;;4980007;28;20233;-57
2022/08/29 02:35:19;;;;;;;7.15;3.22;;;;;;;;;;4983506;28;20921;-57
2022/08/29 02:37:45;;;;;;;6.25;3.15;;;;;;;;;;4976905;28;20241;-58
2022/08/29 02:40:11;;;;;;;4.72;3.05;;;;;;;;;;4987812;28;20585;-56
2022/08/29 02:42:38;;;;;;;14.02;4.80;;;;;;;;;;4984251;28;20627;-57
2022/08/29 02:45:05;;;;;;;6.13;3.45;;;;;;;;;;4984005;28;20240;-56
2022/08/29 02:47:32;;;;;;;5.68;3.30;;;;;;;;;;4983791;28;20238;-57
2022/08/29 02:50:00;;;;;;;7.93;3.92;;;;;;;;;;4987955;28;20237;-57
2022/08/29 02:52:26;;;;;;;7.78;3.72;;;;;;;;;;4985067;28;20229;-56
2022/08/29 02:54:52;;;;;;;6.93;4.43;;;;;;;;;;4984872;28;20263;-56
2022/08/29 02:57:19;;;;;;;6.38;4.47;;;;;;;;;;4983736;28;20245;-57
2022/08/29 02:59:45;;;;;;;4.93;4.28;;;;;;;;;;4986974;28;20236;-57
2022/08/29 03:02:11;;;;;;;4.03;3.08;;;;;;;;;;4985996;28;20240;-56
2022/08/29 03:04:38;;;;;;;9.80;4.40;;;;;;;;;;4991605;28;20907;-56
2022/08/29 03:07:13;;;;;;;7.03;3.15;;;;;;;;;;4984110;28;20241;-56
2022/08/29 03:09:40;;;;;;;8.48;4.20;;;;;;;;;;4984650;28;20251;-56
2022/08/29 03:12:06;;;;;;;4.90;3.10;;;;;;;;;;4978991;28;20231;-55
2022/08/29 03:14:34;;;;;;;6.63;3.40;;;;;;;;;;4985842;28;20996;-56
2022/08/29 03:17:00;;;;;;;7.90;3.85;;;;;;;;;;4985477;28;20238;-56
2022/08/29 03:19:27;;;;;;;13.43;4.35;;;;;;;;;;4988751;28;20249;-58
2022/08/29 03:21:53;;;;;;;5.63;3.28;;;;;;;;;;4991632;28;20230;-56
2022/08/29 03:24:21;;;;;;;8.23;3.53;;;;;;;;;;4987302;28;20324;-57
2022/08/29 03:26:47;;;;;;;8.88;4.00;;;;;;;;;;4983930;28;20230;-57
2022/08/29 03:29:13;;;;;;;9.45;3.78;;;;;;;;;;4983919;28;20238;-56
2022/08/29 03:31:40;;;;;;;7.60;3.30;;;;;;;;;;4984442;28;20634;-57
2022/08/29 03:34:06;;;;;;;4.75;3.38;;;;;;;;;;4986191;28;20237;-57
2022/08/29 03:36:33;;;;;;;5.70;3.38;;;;;;;;;;4986182;28;20238;-57
2022/08/29 03:38:59;;;;;;;11.02;3.95;;;;;;;;;;4988937;28;20233;-57
2022/08/29 03:41:28;;;;;;;5.80;3.40;;;;;;;;;;4984529;28;20234;-56
2022/08/29 03:43:56;;;;;;;6.50;3.13;;;;;;;;;;4983819;28;20234;-56
2022/08/29 03:46:23;;;;;;;6.38;4.03;;;;;;;;;;4983505;28;20411;-56
2022/08/29 03:48:49;;;;;;;6.57;3.88;;;;;;;;;;4980430;28;20248;-56
2022/08/29 03:51:16;;;;;;;4.95;3.05;;;;;;;;;;4979967;28;20233;-57
2022/08/29 03:53:42;;;;;;;8.52;3.78;;;;;;;;;;4986041;28;20241;-57
2022/08/29 03:56:09;;;;;;;5.88;4.07;;;;;;;;;;4982723;28;20233;-57
2022/08/29 03:58:38;;;;;;;7.47;3.55;;;;;;;;;;4983283;28;20237;-56
2022/08/29 04:01:04;;;;;;;6.82;3.72;;;;;;;;;;4984064;28;20226;-56
2022/08/29 04:03:31;;;;;;;9.07;3.90;;;;;;;;;;4985529;28;20242;-56
2022/08/29 04:05:58;;;;;;;5.85;4.00;;;;;;;;;;4981505;28;20254;-56
2022/08/29 04:08:24;;;;;;;6.90;3.92;;;;;;;;;;4983569;28;20249;-56
2022/08/29 04:10:50;;;;;;;6.07;4.00;;;;;;;;;;4980610;28;20771;-57
2022/08/29 04:13:17;;;;;;;5.47;3.53;;;;;;;;;;4980946;28;20234;-57
2022/08/29 04:15:44;;;;;;;6.00;3.78;;;;;;;;;;4983178;28;20790;-57
2022/08/29 04:18:11;;;;;;;5.00;3.58;;;;;;;;;;4983501;28;20239;-57
2022/08/29 04:20:40;;;;;;;8.85;5.60;;;;;;;;;;4979582;28;20370;-56
2022/08/29 04:23:07;;;;;;;7.75;3.13;;;;;;;;;;4984449;28;20325;-57
2022/08/29 04:25:35;;;;;;;7.57;4.78;;;;;;;;;;4984586;28;20237;-57
2022/08/29 04:28:03;;;;;;;10.88;3.70;;;;;;;;;;4983410;28;20744;-56
2022/08/29 04:30:29;;;;;;;6.15;3.97;;;;;;;;;;4988714;28;20230;-57
2022/08/29 04:32:57;;;;;;;6.45;3.63;;;;;;;;;;4983157;28;20249;-57
2022/08/29 04:35:23;;;;;;;5.70;3.42;;;;;;;;;;4988316;28;20241;-58
2022/08/29 04:37:50;;;;;;;6.03;3.53;;;;;;;;;;4985302;28;20234;-57
2022/08/29 04:40:18;;;;;;;6.53;3.53;;;;;;;;;;4983034;28;20240;-56
2022/08/29 04:42:45;;;;;;;9.00;4.90;;;;;;;;;;4983693;28;20233;-56
2022/08/29 04:45:13;;;;;;;7.45;4.45;;;;;;;;;;4984983;28;20242;-57
2022/08/29 04:47:40;;;;;;;7.15;3.60;;;;;;;;;;4983583;28;20244;-57
2022/08/29 04:50:09;;;;;;;6.60;4.15;;;;;;;;;;4986175;28;20241;-56
2022/08/29 04:52:36;;;;;;;7.03;4.40;;;;;;;;;;4983345;28;20241;-57
2022/08/29 04:55:02;;;;;;;7.13;4.30;;;;;;;;;;4981895;28;20288;-56
2022/08/29 04:57:29;;;;;;;6.40;3.90;;;;;;;;;;4983282;28;20826;-57
2022/08/29 04:59:57;;;;;;;10.63;5.15;;;;;;;;;;4981973;28;20241;-56
2022/08/29 05:02:24;;;;;;;6.57;4.78;;;;;;;;;;4982367;28;20238;-56
2022/08/29 05:04:51;;;;;;;5.70;4.30;;;;;;;;;;4982676;28;20268;-56
2022/08/29 05:07:20;;;;;;;6.38;4.50;;;;;;;;;;4984197;28;20259;-57
2022/08/29 05:09:47;;;;;;;6.40;4.60;;;;;;;;;;4984832;28;20246;-56
2022/08/29 05:12:13;;;;;;;9.23;5.25;;;;;;;;;;4984473;28;20245;-57
2022/08/29 05:14:39;;;;;;;6.97;5.18;;;;;;;;;;4978293;28;20233;-57
2022/08/29 05:17:06;;;;;;;9.88;5.57;;;;;;;;;;4991794;28;20661;-57
2022/08/29 05:19:32;;;;;;;9.55;5.65;;;;;;;;;;4982028;28;20248;-56
2022/08/29 05:21:58;;;;;;;14.45;5.82;;;;;;;;;;4981106;28;20237;-57
2022/08/29 05:24:27;;;;;;;10.73;6.47;;;;;;;;;;4977099;28;20234;-56
2022/08/29 05:26:53;;;;;;;11.43;6.28;;;;;;;;;;4981079;28;20337;-57
2022/08/29 05:29:20;;;;;;;9.07;5.07;;;;;;;;;;4982337;28;20234;-56
2022/08/29 05:31:48;;;;;;;8.50;4.72;;;;;;;;;;4980293;28;20939;-56
2022/08/29 05:34:15;;;;;;;9.90;5.28;;;;;;;;;;4983328;28;20238;-56
2022/08/29 05:36:41;;;;;;;9.63;5.00;;;;;;;;;;4981864;28;20229;-56
2022/08/29 05:39:08;;;;;;;8.60;5.05;;;;;;;;;;4983769;28;20317;-57
2022/08/29 05:41:36;;;;;;;6.43;4.63;;;;;;;;;;4982926;28;20238;-57
2022/08/29 05:44:03;;;;;;;12.75;5.63;;;;;;;;;;4983220;28;20309;-57
2022/08/29 05:46:29;;;;;;;8.35;4.63;;;;;;;;;;4984670;28;20238;-57
2022/08/29 05:48:55;;;;;;;8.73;4.95;;;;;;;;;;4981587;28;20234;-58
2022/08/29 05:51:23;;;;;;;7.47;4.93;;;;;;;;;;4985040;28;20237;-57
2022/08/29 05:53:49;;;;;;;9.57;5.93;;;;;;;;;;4984988;28;20226;-56
2022/08/29 05:56:22;;;;;;;6.05;4.63;;;;;;;;;;4981058;28;20654;-57
2022/08/29 05:58:50;;;;;;;7.10;4.40;;;;;;;;;;4983140;28;20719;-57
2022/08/29 06:01:23;;;;;;;9.30;4.28;;;;;;;;;;4975491;28;20238;-58
2022/08/29 06:03:50;;;;;;;8.88;4.95;;;;;;;;;;4979956;28;20253;-57
2022/08/29 06:06:19;;;;;;;7.28;4.43;;;;;;;;;;4975812;28;20229;-55
2022/08/29 06:08:45;;;;;;;6.32;3.90;;;;;;;;;;4976714;28;20314;-56
2022/08/29 06:11:13;;;;;;;7.95;5.05;;;;;;;;;;4983750;28;20237;-58
2022/08/29 06:13:40;;;;;;;9.93;4.70;;;;;;;;;;4980166;28;20236;-56
2022/08/29 06:16:10;;;;;;;10.13;5.82;;;;;;;;;;4983126;28;20751;-56
2022/08/29 06:18:36;;;;;;;10.57;5.93;;;;;;;;;;4981085;28;20252;-57
2022/08/29 06:21:03;;;;;;;7.28;4.60;;;;;;;;;;4981041;28;20234;-57
2022/08/29 06:23:29;;;;;;;7.53;4.53;;;;;;;;;;4979158;28;20229;-56
2022/08/29 06:25:56;;;;;;;12.88;5.75;;;;;;;;;;4969635;23;20602;-58
2022/08/29 06:28:22;;;;;;;9.13;5.50;;;;;;;;;;4941532;28;20310;-58
2022/08/29 06:30:49;;;;;;;8.18;4.88;;;;;;;;;;4938677;28;20713;-58
2022/08/29 06:33:16;;;;;;;10.38;5.78;;;;;;;;;;4943497;28;20238;-57
2022/08/29 06:35:43;;;;;;;8.15;4.95;;;;;;;;;;4940780;28;20251;-58
2022/08/29 06:38:09;;;;;;;9.55;5.55;;;;;;;;;;4942091;28;20228;-58
2022/08/29 06:40:35;;;;;;;7.85;5.13;;;;;;;;;;4937279;28;20239;-57
2022/08/29 06:43:02;;;;;;;14.02;5.47;;;;;;;;;;4933425;28;20231;-57
2022/08/29 06:45:28;;;;;;;9.20;5.03;;;;;;;;;;4944463;28;20244;-56
2022/08/29 06:47:54;;;;;;;11.55;5.07;;;;;;;;;;4944023;28;20258;-58
2022/08/29 06:50:22;;;;;;;11.05;5.22;;;;;;;;;;4944487;28;20374;-58
2022/08/29 06:52:48;;;;;;;6.80;4.43;;;;;;;;;;4943467;28;20598;-58
2022/08/29 06:55:15;;;;;;;9.57;5.32;;;;;;;;;;4942356;28;20731;-56
2022/08/29 06:57:44;;;;;;;10.63;4.88;;;;;;;;;;4939665;28;20231;-57
2022/08/29 07:00:12;;;;;;;18.25;5.05;;;;;;;;;;4939100;28;20236;-57
2022/08/29 07:02:39;;;;;;;7.68;6.13;;;;;;;;;;4944877;28;20242;-58
2022/08/29 07:05:06;;;;;;;10.80;5.85;;;;;;;;;;4944104;28;20227;-57
2022/08/29 07:07:34;;;;;;;12.32;5.25;;;;;;;;;;4943824;28;20323;-57
2022/08/29 07:10:00;;;;;;;7.57;4.90;;;;;;;;;;4941163;28;20251;-57
2022/08/29 07:12:27;;;;;;;7.20;4.63;;;;;;;;;;4943733;28;20765;-57
2022/08/29 07:14:53;;;;;;;9.50;5.32;;;;;;;;;;4942374;28;20231;-56
2022/08/29 07:17:20;;;;;;;10.30;5.78;;;;;;;;;;4936638;28;20734;-58
2022/08/29 07:19:47;;;;;;;8.45;4.53;;;;;;;;;;4943557;28;20238;-58
2022/08/29 07:22:14;;;;;;;11.60;4.85;;;;;;;;;;4934519;28;20294;-56
2022/08/29 07:24:41;;;;;;;7.28;5.45;;;;;;;;;;4945234;28;20231;-58
2022/08/29 07:27:10;;;;;;;10.65;5.10;;;;;;;;;;4942169;28;20230;-56
2022/08/29 07:29:40;;;;;;;6.97;5.22;;;;;;;;;;4946668;28;20235;-58
2022/08/29 07:32:07;;;;;;;8.70;5.85;;;;;;;;;;4942837;28;20246;-53
2022/08/29 07:34:33;;;;;;;8.60;4.70;;;;;;;;;;4939347;28;20327;-56
2022/08/29 07:37:00;;;;;;;13.73;6.15;;;;;;;;;;4944492;28;20257;-56
2022/08/29 07:39:26;;;;;;;9.07;4.70;;;;;;;;;;4932132;28;20235;-57
2022/08/29 07:41:54;;;;;;;10.02;5.40;;;;;;;;;;4948938;28;20236;-58
2022/08/29 07:44:21;;;;;;;16.33;6.43;;;;;;;;;;4941856;28;20262;-56
2022/08/29 07:46:48;;;;;;;9.38;5.28;;;;;;;;;;4935611;28;20246;-56
2022/08/29 07:49:14;;;;;;;11.23;6.43;;;;;;;;;;4940096;28;20331;-59
2022/08/29 07:51:40;;;;;;;7.38;5.57;;;;;;;;;;4946082;28;20224;-57
2022/08/29 07:54:07;;;;;;;10.43;5.63;;;;;;;;;;4945856;28;20238;-57
2022/08/29 07:56:34;;;;;;;6.28;5.13;;;;;;;;;;4948549;28;20234;-56
2022/08/29 07:59:02;;;;;;;9.07;5.72;;;;;;;;;;4945903;28;20228;-57
2022/08/29 08:01:29;;;;;;;7.07;4.80;;;;;;;;;;4945807;28;20612;-55
2022/08/29 08:03:55;;;;;;;9.48;5.60;;;;;;;;;;4941812;28;20313;-57
2022/08/29 08:06:23;;;;;;;28.40;13.57;;;;;;;;;;4938103;28;20244;-58
2022/08/29 08:08:49;;;;;;;13.98;6.25;;;;;;;;;;4938144;28;20266;-58
2022/08/29 08:11:16;;;;;;;10.52;5.03;;;;;;;;;;4934437;28;20269;-55
2022/08/29 08:13:43;;;;;;;10.57;5.82;;;;;;;;;;4938636;28;20231;-56
2022/08/29 08:16:11;;;;;;;15.68;8.32;;;;;;;;;;4948239;28;20641;-55
2022/08/29 08:18:38;;;;;;;8.32;5.22;;;;;;;;;;4939673;28;20760;-55
2022/08/29 08:21:05;;;;;;;16.20;6.15;;;;;;;;;;4942233;28;20956;-57
2022/08/29 08:23:32;;;;;;;8.25;5.22;;;;;;;;;;4947870;28;20318;-54
2022/08/29 08:25:58;;;;;;;9.77;5.57;;;;;;;;;;4945909;28;20246;-57
2022/08/29 08:28:25;;;;;;;8.07;4.97;;;;;;;;;;4943506;28;20235;-56
2022/08/29 08:30:51;;;;;;;8.77;5.18;;;;;;;;;;4947698;28;20243;-56
2022/08/29 08:33:19;;;;;;;11.40;5.72;;;;;;;;;;4943922;28;20239;-57
2022/08/29 08:35:45;;;;;;;7.72;5.20;;;;;;;;;;4944911;28;20242;-57
2022/08/29 08:38:11;;;;;;;10.93;5.18;;;;;;;;;;4947567;28;20232;-57
2022/08/29 08:40:41;;;;;;;6.93;5.13;;;;;;;;;;4937046;28;20295;-58
2022/08/29 08:43:09;;;;;;;17.48;6.93;;;;;;;;;;4943004;28;20238;-58
2022/08/29 08:45:37;;;;;;;9.30;5.28;;;;;;;;;;4944584;28;20243;-58
2022/08/29 08:48:04;;;;;;;10.10;5.00;;;;;;;;;;4947259;28;20241;-58
2022/08/29 08:50:39;;;;;;;14.00;5.57;;;;;;;;;;4943944;28;20286;-57
2022/08/29 08:53:07;;;;;;;9.70;5.85;;;;;;;;;;4935237;28;20422;-58
2022/08/29 08:55:37;;;;;;;12.80;6.20;;;;;;;;;;4947772;28;20243;-57
2022/08/29 08:58:08;;;;;;;11.07;6.65;;;;;;;;;;4939150;28;20235;-57
2022/08/29 09:00:37;;;;;;;9.25;5.47;;;;;;;;;;4946656;28;20597;-56
2022/08/29 09:03:08;;;;;;;10.73;5.72;;;;;;;;;;4948149;28;20735;-56
2022/08/29 09:05:41;;;;;;;6.78;4.72;;;;;;;;;;4934720;28;20249;-57
2022/08/29 09:08:12;;;;;;;8.20;4.95;;;;;;;;;;4949470;28;20240;-57
2022/08/29 09:10:43;;;;;;;8.23;5.03;;;;;;;;;;4942638;28;20237;-58
2022/08/29 09:13:13;;;;;;;9.00;4.32;;;;;;;;;;4943622;28;20238;-57
2022/08/29 09:15:42;;;;;;;4.88;4.30;;;;;;;;;;4937872;28;20244;-57
2022/08/29 09:18:11;;;;;;;6.78;6.05;;;;;;;;;;4939826;28;20629;-57
2022/08/29 09:20:41;;;;;;;16.25;6.57;;;;;;;;;;4950909;28;20251;-57
2022/08/29 09:23:12;;;;;;;9.27;6.13;;;;;;;;;;4950298;28;20231;-57
2022/08/29 09:25:39;;;;;;;5.95;4.95;;;;;;;;;;4944902;28;20243;-56
2022/08/29 09:28:06;;;;;;;6.97;5.00;;;;;;;;;;4944281;28;20740;-56
2022/08/29 09:30:36;;;;;;;9.13;6.07;;;;;;;;;;4951995;28;20227;-57
2022/08/29 09:33:03;;;;;;;8.50;4.88;;;;;;;;;;4940487;28;20325;-56
2022/08/29 09:35:35;;;;;;;5.65;5.00;;;;;;;;;;4956077;28;20238;-55
2022/08/29 09:38:04;;;;;;;6.32;5.28;;;;;;;;;;4949468;28;20243;-56
2022/08/29 09:40:43;;;;;;;9.73;6.65;;;;;;;;;;4949029;28;20251;-55
2022/08/29 09:43:16;;;;;;;8.02;5.22;;;;;;;;;;4941214;28;20235;-55
2022/08/29 09:46:01;;;;;;;10.60;5.70;;;;;;;;;;4943291;28;20789;-55
2022/08/29 09:48:27;;;;;;;6.38;5.22;;;;;;;;;;4946121;28;20243;-56
2022/08/29 09:51:08;;;;;;;7.93;5.50;;;;;;;;;;4945588;28;20239;-56
2022/08/29 09:53:35;;;;;;;6.32;5.00;;;;;;;;;;4939989;28;20227;-56
2022/08/29 09:56:04;;;;;;;7.45;4.70;;;;;;;;;;4934424;28;20246;-55
2022/08/29 09:58:33;;;;;;;8.70;4.88;;;;;;;;;;4940301;28;20249;-56
2022/08/29 10:01:01;;;;;;;7.18;5.15;;;;;;;;;;4936324;28;20257;-56
2022/08/29 10:03:28;;;;;;;7.78;6.25;;;;;;;;;;4940303;28;20238;-57
2022/08/29 10:06:04;;;;;;;7.97;5.25;;;;;;;;;;4940220;28;20335;-58
2022/08/29 10:08:34;;;;;;;8.30;5.38;;;;;;;;;;4942361;28;20239;-56
2022/08/29 10:11:04;;;;;;;10.30;5.97;;;;;;;;;;4948338;28;20254;-56
2022/08/29 10:13:34;;;;;;;9.68;5.85;;;;;;;;;;4932427;28;20244;-55
2022/08/29 10:16:06;;;;;;;7.95;5.85;;;;;;;;;;4939286;28;20431;-56
2022/08/29 10:18:38;;;;;;;7.32;4.75;;;;;;;;;;4933392;28;20231;-56
2022/08/29 10:21:12;;;;;;;8.38;5.55;;;;;;;;;;4944900;28;20230;-56
2022/08/29 10:23:43;;;;;;;9.38;4.88;;;;;;;;;;4939244;28;20230;-55
2022/08/29 10:26:15;;;;;;;8.27;5.63;;;;;;;;;;4937908;28;20268;-57
2022/08/29 10:28:47;;;;;;;7.50;4.72;;;;;;;;;;4948497;28;20259;-57
2022/08/29 10:31:17;;;;;;;8.55;5.90;;;;;;;;;;4947023;28;20235;-56
2022/08/29 10:33:56;;;;;;;8.52;6.53;;;;;;;;;;4939408;28;20238;-55
2022/08/29 10:36:26;;;;;;;5.72;5.00;;;;;;;;;;4946965;28;20277;-56
2022/08/29 10:38:56;;;;;;;6.55;4.78;;;;;;;;;;4941396;28;20241;-56
2022/08/29 10:41:29;;;;;;;7.10;5.38;;;;;;;;;;4938670;28;20255;-56
2022/08/29 10:44:00;;;;;;;10.70;7.78;;;;;;;;;;4938748;28;20286;-57
2022/08/29 10:46:38;;;;;;;6.70;5.47;;;;;;;;;;4946141;28;20247;-55
2022/08/29 10:49:09;;;;;;;4.68;4.13;;;;;;;;;;4947988;28;20231;-56
2022/08/29 10:51:38;;;;;;;4.88;4.40;;;;;;;;;;4945776;28;20239;-56
2022/08/29 10:54:09;;;;;;;9.20;5.20;;;;;;;;;;4940315;28;20464;-56
2022/08/29 10:56:39;;;;;;;5.88;4.93;;;;;;;;;;4943038;28;20235;-57
2022/08/29 10:59:08;;;;;;;11.05;6.35;;;;;;;;;;4946383;28;20265;-57
2022/08/29 11:01:38;;;;;;;7.05;4.90;;;;;;;;;;4948806;28;20393;-55
2022/08/29 11:04:07;;;;;;;5.80;5.20;;;;;;;;;;4949789;28;20238;-54
2022/08/29 11:06:35;;;;;;;7.88;5.22;;;;;;;;;;4944825;28;20263;-56
2022/08/29 11:09:04;;;;;;;7.15;6.28;;;;;;;;;;4948547;28;20751;-55
2022/08/29 11:11:32;;;;;;;5.97;5.22;;;;;;;;;;4951345;28;20274;-56
2022/08/29 11:14:01;;;;;;;7.13;5.60;;;;;;;;;;4946458;28;20239;-55
2022/08/29 11:16:30;;;;;;;8.85;5.30;;;;;;;;;;4950076;28;20240;-56
2022/08/29 11:19:00;;;;;;;12.85;5.80;;;;;;;;;;4949387;28;20833;-56
2022/08/29 11:21:29;;;;;;;7.53;5.20;;;;;;;;;;4947510;28;20242;-56
2022/08/29 11:23:57;;;;;;;5.57;5.00;;;;;;;;;;4949579;28;20238;-55
2022/08/29 11:26:31;;;;;;;6.38;5.47;;;;;;;;;;4949346;28;20239;-55
2022/08/29 11:29:01;;;;;;;7.60;4.55;;;;;;;;;;4947393;28;20250;-55
2022/08/29 11:31:37;;;;;;;8.57;5.27;;;;;;;;;;4945706;28;20437;-56
2022/08/29 11:34:07;;;;;;;6.15;4.70;;;;;;;;;;4949731;28;20338;-56
2022/08/29 11:36:46;;;;;;;6.75;4.80;;;;;;;;;;4952530;28;20243;-53
2022/08/29 11:39:22;;;;;;;8.65;5.40;;;;;;;;;;4939843;28;20235;-55
2022/08/29 11:41:50;;;;;;;6.65;5.10;;;;;;;;;;4945105;28;20238;-54
2022/08/29 11:44:21;;;;;;;8.27;5.43;;;;;;;;;;4943729;28;20247;-56
2022/08/29 11:46:50;;;;;;;11.13;5.97;;;;;;;;;;4938208;28;20240;-56
2022/08/29 11:49:23;;;;;;;5.60;4.45;;;;;;;;;;4942833;28;20262;-56
2022/08/29 11:51:52;;;;;;;5.40;4.90;;;;;;;;;;4951321;28;20231;-55
2022/08/29 11:54:38;;;;;;;7.50;4.88;;;;;;;;;;4951318;28;20243;-55
2022/08/29 11:57:19;;;;;;;8.05;4.82;;;;;;;;;;4945890;28;20355;-56
2022/08/29 11:59:58;;;;;;;8.75;5.13;;;;;;;;;;4936287;28;20246;-55
2022/08/29 12:02:39;;;;;;;7.28;4.93;;;;;;;;;;4947358;28;20227;-55
2022/08/29 12:05:27;;;;;;;7.80;4.93;;;;;;;;;;4944372;28;20243;-55
2022/08/29 12:07:55;;;;;;;6.05;3.88;;;;;;;;;;4941350;28;20227;-56
2022/08/29 12:10:25;;;;;;;7.20;4.72;;;;;;;;;;4951559;28;20238;-54
2022/08/29 12:12:52;;;;;;;5.82;4.53;;;;;;;;;;4950391;28;20239;-55
2022/08/29 12:15:45;;;;;;;4.65;4.05;;;;;;;;;;4953042;28;20739;-55
2022/08/29 12:18:30;;;;;;;6.20;4.47;;;;;;;;;;4941604;28;20241;-54
2022/08/29 12:21:01;;;;;;;10.35;4.57;;;;;;;;;;4936618;28;20237;-56
2022/08/29 12:23:29;;;;;;;7.10;4.03;;;;;;;;;;4951899;28;20326;-55
2022/08/29 12:25:56;;;;;;;7.80;3.95;;;;;;;;;;4951189;28;20238;-56
2022/08/29 12:28:31;;;;;;;6.60;4.50;;;;;;;;;;4950447;28;20237;-56
2022/08/29 12:31:04;;;;;;;5.93;4.07;;;;;;;;;;4943308;28;20291;-56
2022/08/29 12:33:35;;;;;;;5.95;3.90;;;;;;;;;;4944117;28;20247;-56
2022/08/29 12:36:09;;;;;;;5.30;4.32;;;;;;;;;;4938473;28;20786;-57
2022/08/29 12:38:39;;;;;;;6.10;4.88;;;;;;;;;;4945581;28;20243;-55
2022/08/29 12:41:17;;;;;;;9.90;4.70;;;;;;;;;;4946515;28;20238;-55
2022/08/29 12:43:44;;;;;;;6.30;4.72;;;;;;;;;;4950522;28;20304;-55
2022/08/29 12:46:13;;;;;;;6.10;4.70;;;;;;;;;;4946256;28;20459;-55
2022/08/29 12:48:42;;;;;;;7.43;4.15;;;;;;;;;;4945162;28;20654;-56
2022/08/29 12:51:10;;;;;;;5.28;4.50;;;;;;;;;;4952097;28;20254;-56
2022/08/29 12:53:38;;;;;;;7.88;4.63;;;;;;;;;;4949565;28;20729;-59
2022/08/29 12:56:13;;;;;;;7.30;4.75;;;;;;;;;;4942962;28;20239;-60
2022/08/29 12:58:40;;;;;;;5.05;4.20;;;;;;;;;;4946016;28;20234;-60
2022/08/29 13:01:09;;;;;;;5.70;4.07;;;;;;;;;;4948729;28;20796;-61
2022/08/29 13:03:36;;;;;;;8.38;4.50;;;;;;;;;;4942799;28;20266;-58
2022/08/29 13:06:04;;;;;;;11.93;4.75;;;;;;;;;;4929417;28;20239;-57
2022/08/29 13:08:32;;;;;;;13.20;5.68;;;;;;;;;;4939812;28;20239;-57
2022/08/29 13:11:03;;;;;;;5.10;4.30;;;;;;;;;;4945887;28;20230;-58
2022/08/29 13:13:29;;;;;;;6.00;4.20;;;;;;;;;;4949233;28;20322;-57
2022/08/29 13:15:57;;;;;;;4.47;3.53;;;;;;;;;;4954935;28;20243;-58
2022/08/29 13:18:24;;;;;;;7.78;4.03;;;;;;;;;;4952904;28;20827;-57
2022/08/29 13:21:02;;;;;;;4.03;3.33;;;;;;;;;;4947502;28;20267;-58
2022/08/29 13:23:29;;;;;;;3.75;3.45;;;;;;;;;;4946574;28;20239;-59
2022/08/29 13:26:05;;;;;;;5.40;3.63;;;;;;;;;;4943301;28;20370;-59
2022/08/29 13:28:40;;;;;;;7.55;4.30;;;;;;;;;;4946866;28;21306;-59
2022/08/29 13:31:30;;;;;;;7.32;4.20;;;;;;;;;;4948149;28;20242;-58
2022/08/29 13:34:20;;;;;;;4.22;3.58;;;;;;;;;;4945578;28;20231;-58
2022/08/29 13:36:49;;;;;;;4.55;3.83;;;;;;;;;;4947797;28;20246;-57
2022/08/29 13:39:25;;;;;;;4.32;3.53;;;;;;;;;;4947613;28;22235;-57
2022/08/29 13:42:07;;;;;;;12.40;3.28;;;;;;;;;;4949916;28;20319;-61
2022/08/29 13:44:35;;;;;;;4.20;3.83;;;;;;;;;;4954166;28;20230;-58
2022/08/29 13:47:03;;;;;;;6.45;3.95;;;;;;;;;;4942580;28;20266;-59
2022/08/29 13:49:31;;;;;;;3.53;3.25;;;;;;;;;;4937191;28;20231;-57
2022/08/29 13:51:58;;;;;;;6.05;4.10;;;;;;;;;;4940615;28;20651;-58
2022/08/29 13:54:25;;;;;;;4.03;3.15;;;;;;;;;;4946893;28;20318;-59
2022/08/29 13:56:56;;;;;;;5.35;3.47;;;;;;;;;;4946358;28;20242;-60
2022/08/29 13:59:24;;;;;;;3.65;3.17;;;;;;;;;;4946898;28;20235;-58
2022/08/29 14:01:51;;;;;;;3.40;3.10;;;;;;;;;;4941410;28;20255;-60
2022/08/29 14:04:17;;;;;;;4.32;3.13;;;;;;;;;;4934119;28;20314;-59
2022/08/29 14:06:44;;;;;;;4.50;3.67;;;;;;;;;;4946651;29;20285;-58
2022/08/29 14:09:12;;;;;;;4.07;3.17;;;;;;;;;;4950155;28;20237;-58
2022/08/29 14:11:38;;;;;;;4.40;3.47;;;;;;;;;;4937304;28;20452;-57
2022/08/29 14:14:06;;;;;;;3.30;3.00;;;;;;;;;;4953167;28;20283;-59
2022/08/29 14:16:32;;;;;;;4.22;2.95;;;;;;;;;;4949618;28;20840;-57
2022/08/29 14:18:59;;;;;;;6.40;3.25;;;;;;;;;;4938199;28;20239;-57
2022/08/29 14:21:25;;;;;;;5.72;2.92;;;;;;;;;;4938738;28;20235;-57
2022/08/29 14:23:52;;;;;;;4.30;2.90;;;;;;;;;;4946308;28;20433;-58
2022/08/29 14:26:19;;;;;;;2.85;2.58;;;;;;;;;;4943060;28;20263;-60
2022/08/29 14:28:45;;;;;;;3.28;2.90;;;;;;;;;;4944236;28;20242;-59
2022/08/29 14:31:13;;;;;;;4.60;3.47;;;;;;;;;;4944590;28;20231;-57
2022/08/29 14:33:39;;;;;;;5.20;3.15;;;;;;;;;;4946755;28;20237;-56
2022/08/29 14:36:06;;;;;;;6.15;2.88;;;;;;;;;;4951238;28;20629;-58
2022/08/29 14:38:32;;;;;;;4.45;3.03;;;;;;;;;;4946233;28;20231;-61
2022/08/29 14:40:59;;;;;;;2.63;2.42;;;;;;;;;;4949680;28;20233;-57
2022/08/29 14:43:25;;;;;;;2.85;2.60;;;;;;;;;;4953631;28;20235;-57
2022/08/29 14:45:51;;;;;;;4.25;2.67;;;;;;;;;;4950055;28;20249;-57
2022/08/29 14:48:19;;;;;;;3.28;2.97;;;;;;;;;;4950488;28;20232;-59
2022/08/29 14:50:45;;;;;;;2.50;2.30;;;;;;;;;;4950008;28;20239;-60
2022/08/29 14:53:12;;;;;;;4.88;2.50;;;;;;;;;;4950096;29;20250;-58
2022/08/29 14:55:38;;;;;;;3.33;2.45;;;;;;;;;;4943257;28;20239;-58